createdAt,value
2023-01-23T00:03:52.015Z,89.24
2023-01-23T00:09:00.812Z,89.29
2023-01-23T00:14:07.716Z,88.88
2023-01-23T00:19:14.408Z,89.44
2023-01-23T00:24:22.481Z,89.06
2023-01-23T00:29:29.407Z,89.19
2023-01-23T00:34:36.412Z,89.40
2023-01-23T00:39:46.351Z,89.14
2023-01-23T00:44:53.050Z,89.12
2023-01-23T00:50:00.967Z,89.44
2023-01-23T00:55:12.013Z,89.44
2023-01-23T01:00:20.860Z,89.44
2023-01-23T01:05:28.161Z,89.50
2023-01-23T01:10:38.327Z,89.80
2023-01-23T01:15:45.019Z,89.63
2023-01-23T01:20:52.081Z,89.44
2023-01-23T01:26:03.743Z,89.88
2023-01-23T01:31:13.452Z,90.01
2023-01-23T01:36:24.324Z,90.14
2023-01-23T01:41:34.589Z,90.15
2023-01-23T01:46:41.070Z,90.16
2023-01-23T01:51:53.122Z,90.64
2023-01-23T01:57:20.565Z,90.40
2023-01-23T02:02:31.389Z,90.74
2023-01-23T02:07:43.362Z,91.03
2023-01-23T02:12:54.224Z,91.13
2023-01-23T02:18:00.816Z,91.21
2023-01-23T02:23:37.057Z,91.36
2023-01-23T02:28:48.055Z,91.33
2023-01-23T02:34:01.005Z,91.59
2023-01-23T02:39:11.031Z,91.48
2023-01-23T02:44:26.838Z,91.55
2023-01-23T02:49:37.472Z,91.40
2023-01-23T02:54:45.277Z,91.22
2023-01-23T03:00:11.577Z,91.32
2023-01-23T03:05:19.330Z,91.08
2023-01-23T03:10:25.806Z,91.33
2023-01-23T03:15:33.654Z,91.76
2023-01-23T03:20:42.959Z,91.71
2023-01-23T03:25:58.792Z,91.71
2023-01-23T03:31:10.384Z,91.87
2023-01-23T03:36:16.671Z,91.75
2023-01-23T03:41:28.744Z,91.71
2023-01-23T03:46:41.898Z,91.82
2023-01-23T03:51:48.246Z,91.55
2023-01-23T03:56:56.288Z,91.83
2023-01-23T04:02:24.929Z,91.31
2023-01-23T04:07:31.912Z,91.42
2023-01-23T04:12:39.354Z,91.34
2023-01-23T04:17:48.656Z,91.63
2023-01-23T04:22:55.365Z,91.47
2023-01-23T04:28:02.682Z,91.66
2023-01-23T04:33:10.891Z,91.18
2023-01-23T04:38:18.497Z,91.25
2023-01-23T04:43:26.162Z,91.59
2023-01-23T04:48:35.431Z,91.42
2023-01-23T04:53:41.923Z,91.37
2023-01-23T04:58:50.278Z,91.26
2023-01-23T05:04:00.497Z,91.49
2023-01-23T05:09:07.661Z,91.42
2023-01-23T05:14:28.424Z,91.58
2023-01-23T05:19:36.281Z,91.49
2023-01-23T05:24:48.833Z,91.76
2023-01-23T05:29:56.105Z,91.85
2023-01-23T05:35:08.204Z,91.85
2023-01-23T05:40:18.830Z,91.99
2023-01-23T05:45:57.046Z,92.14
2023-01-23T05:51:14.371Z,92.23
2023-01-23T05:56:21.477Z,92.31
2023-01-23T06:01:55.202Z,92.29
2023-01-23T06:07:23.305Z,91.90
2023-01-23T06:12:35.467Z,92.28
2023-01-23T06:17:42.436Z,92.21
2023-01-23T06:22:50.959Z,92.18
2023-01-23T06:27:58.083Z,92.25
2023-01-23T06:33:07.845Z,92.23
2023-01-23T06:38:21.281Z,92.16
2023-01-23T06:43:30.529Z,91.66
2023-01-23T06:48:36.997Z,91.53
2023-01-23T06:53:45.220Z,91.65
2023-01-23T06:58:52.238Z,91.26
2023-01-23T07:04:11.578Z,91.40
2023-01-23T07:09:21.466Z,91.17
2023-01-23T07:14:41.207Z,91.33
2023-01-23T07:19:53.133Z,91.38
2023-01-23T07:25:01.255Z,90.93
2023-01-23T07:30:10.322Z,90.99
2023-01-23T07:35:17.005Z,90.90
2023-01-23T07:40:25.369Z,91.26
2023-01-23T07:45:31.773Z,91.04
2023-01-23T07:50:38.414Z,90.82
2023-01-23T07:55:46.165Z,90.66
2023-01-23T08:00:52.696Z,90.71
2023-01-23T08:06:00.135Z,90.82
2023-01-23T08:11:10.583Z,90.46
2023-01-23T08:16:17.358Z,90.19
2023-01-23T08:21:24.435Z,90.16
2023-01-23T08:26:33.737Z,90.45
2023-01-23T08:31:41.159Z,90.00
2023-01-23T08:36:47.679Z,90.23
2023-01-23T08:41:55.519Z,90.32
2023-01-23T08:47:03.770Z,89.89
2023-01-23T08:52:10.231Z,90.46
2023-01-23T08:57:18.298Z,90.72
2023-01-23T09:02:25.024Z,90.77
2023-01-23T09:07:31.818Z,90.99
2023-01-23T09:12:39.685Z,90.82
2023-01-23T09:17:46.176Z,91.34
2023-01-23T09:22:53.111Z,91.55
2023-01-23T09:28:00.971Z,91.47
2023-01-23T09:33:07.400Z,91.27
2023-01-23T09:38:13.609Z,91.06
2023-01-23T09:43:30.766Z,91.03
2023-01-23T09:48:46.512Z,91.35
2023-01-23T09:53:54.286Z,90.93
2023-01-23T09:59:16.251Z,91.08
2023-01-23T10:04:23.905Z,91.09
2023-01-23T10:10:00.621Z,90.69
2023-01-23T10:15:29.628Z,90.94
2023-01-23T10:21:04.431Z,90.80
2023-01-23T10:26:20.741Z,90.55
2023-01-23T10:31:39.226Z,90.53
2023-01-23T10:37:04.233Z,90.66
2023-01-23T10:42:14.630Z,90.43
2023-01-23T10:47:38.808Z,90.25
2023-01-23T10:52:48.388Z,90.08
2023-01-23T10:57:57.797Z,90.20
2023-01-23T11:03:34.840Z,89.72
2023-01-23T11:08:51.880Z,89.99
2023-01-23T11:14:23.800Z,90.00
2023-01-23T11:19:34.689Z,89.44
2023-01-23T11:24:41.874Z,89.86
2023-01-23T11:30:24.451Z,89.72
2023-01-23T11:36:01.966Z,89.89
2023-01-23T11:41:12.737Z,89.47
2023-01-23T11:46:39.626Z,89.63
2023-01-23T11:51:58.695Z,89.61
2023-01-23T11:57:11.285Z,89.21
2023-01-23T12:03:01.373Z,89.41
2023-01-23T12:08:26.332Z,89.28
2023-01-23T12:13:58.559Z,89.26
2023-01-23T12:19:20.641Z,89.62
2023-01-23T12:24:52.147Z,89.33
2023-01-23T12:30:22.508Z,89.08
2023-01-23T12:35:38.621Z,88.77
2023-01-23T12:40:52.376Z,89.21
2023-01-23T12:46:06.184Z,89.61
2023-01-23T12:51:20.356Z,89.23
2023-01-23T12:56:33.066Z,89.33
2023-01-23T13:02:01.014Z,89.47
2023-01-23T13:07:28.275Z,89.42
2023-01-23T13:12:36.996Z,89.80
2023-01-23T13:17:49.353Z,89.28
2023-01-23T13:22:55.576Z,89.48
2023-01-23T13:28:44.696Z,89.15
2023-01-23T13:33:55.329Z,89.16
2023-01-23T13:39:28.663Z,89.32
2023-01-23T13:44:41.812Z,89.44
2023-01-23T14:23:58.728Z,89.70
2023-01-23T14:29:20.410Z,89.72
2023-01-23T14:34:29.323Z,89.71
2023-01-23T14:39:37.258Z,89.79
2023-01-23T14:44:47.606Z,89.78
2023-01-23T14:49:57.343Z,89.74
2023-01-23T14:55:08.135Z,90.09
2023-01-23T15:00:19.586Z,90.18
2023-01-23T15:05:29.517Z,90.19
2023-01-23T15:10:48.192Z,90.28
2023-01-23T15:15:58.849Z,90.37
2023-01-23T15:21:08.671Z,90.64
2023-01-23T15:26:28.012Z,90.44
2023-01-23T15:31:37.124Z,90.43
2023-01-23T15:36:52.642Z,90.52
2023-01-23T15:42:02.631Z,90.72
2023-01-23T15:47:09.267Z,90.46
2023-01-23T15:52:24.499Z,90.41
2023-01-23T15:57:31.496Z,90.46
2023-01-23T16:02:47.231Z,90.42
2023-01-23T16:08:04.766Z,90.23
2023-01-23T16:13:15.746Z,90.17
2023-01-23T16:18:24.169Z,90.12
2023-01-23T16:23:46.097Z,90.22
2023-01-23T16:28:55.515Z,90.66
2023-01-23T16:34:06.204Z,90.50
2023-01-23T16:39:20.561Z,90.43
2023-01-23T16:44:29.037Z,90.46
2023-01-23T16:49:50.987Z,90.18
2023-01-23T16:55:01.403Z,90.35
2023-01-23T17:00:33.514Z,90.50
2023-01-23T17:05:41.464Z,90.45
2023-01-23T17:10:53.464Z,90.48
2023-01-23T17:16:00.996Z,90.72
2023-01-23T17:21:08.853Z,90.67
2023-01-23T17:26:21.245Z,90.70
2023-01-23T17:31:33.531Z,90.96
2023-01-23T17:36:42.503Z,90.90
2023-01-23T17:41:54.347Z,90.72
2023-01-23T17:47:04.088Z,90.68
2023-01-23T17:52:14.859Z,90.41
2023-01-23T17:57:25.450Z,90.65
2023-01-23T18:02:33.804Z,90.88
2023-01-23T18:07:53.836Z,90.70
2023-01-23T18:13:21.261Z,90.80
2023-01-23T18:18:34.273Z,90.99
2023-01-23T18:23:45.634Z,90.83
2023-01-23T18:29:26.952Z,90.94
2023-01-23T18:34:46.135Z,90.95
2023-01-23T18:40:17.377Z,90.73
2023-01-23T18:45:32.752Z,91.07
2023-01-23T18:50:54.047Z,91.06
2023-01-23T18:56:15.532Z,90.85
2023-01-23T19:01:34.337Z,91.04
2023-01-23T19:06:45.486Z,90.93
2023-01-23T19:12:14.056Z,91.30
2023-01-23T19:17:50.507Z,90.79
2023-01-23T19:23:27.937Z,91.00
2023-01-23T19:28:38.973Z,91.02
2023-01-23T19:33:50.004Z,91.24
2023-01-23T19:39:02.904Z,91.08
2023-01-23T19:44:16.251Z,91.10
2023-01-23T19:49:29.006Z,90.94
2023-01-23T19:54:40.255Z,91.01
2023-01-23T19:59:50.243Z,90.88
2023-01-23T20:05:03.159Z,90.93
2023-01-23T20:10:22.682Z,91.02
2023-01-23T20:15:31.070Z,91.21
2023-01-23T20:20:42.086Z,91.27
2023-01-23T20:26:01.113Z,91.12
2023-01-23T20:31:11.319Z,91.23
2023-01-23T20:36:23.023Z,91.29
2023-01-23T20:41:35.220Z,91.24
2023-01-23T20:46:44.727Z,91.33
2023-01-23T20:51:55.039Z,91.45
2023-01-23T20:57:07.809Z,91.51
2023-01-23T21:02:25.928Z,91.43
2023-01-23T21:07:37.354Z,91.23
2023-01-23T21:12:46.287Z,91.49
2023-01-23T21:17:53.806Z,91.15
2023-01-23T21:23:03.157Z,91.53
2023-01-23T21:28:10.732Z,91.46
2023-01-23T21:33:19.401Z,91.64
2023-01-23T21:38:30.063Z,91.59
2023-01-23T21:43:39.159Z,91.70
2023-01-23T21:48:45.900Z,91.78
2023-01-23T21:53:54.354Z,91.59
2023-01-23T21:59:00.740Z,91.84
2023-01-23T22:04:11.071Z,91.79
2023-01-23T22:09:20.964Z,91.85
2023-01-23T22:14:27.576Z,91.64
2023-01-23T22:19:33.914Z,91.65
2023-01-23T22:24:41.738Z,91.85
2023-01-23T22:29:48.247Z,91.77
2023-01-23T22:34:54.858Z,91.72
2023-01-23T22:40:02.665Z,91.66
2023-01-23T22:45:11.066Z,91.95
2023-01-23T22:50:18.460Z,91.69
2023-01-23T22:55:26.262Z,91.79
2023-01-23T23:00:32.986Z,91.53
2023-01-23T23:05:39.709Z,91.58
2023-01-23T23:10:49.814Z,91.87
2023-01-23T23:15:56.686Z,91.61
2023-01-23T23:21:03.968Z,91.74
2023-01-23T23:26:14.437Z,91.81
2023-01-23T23:31:21.006Z,91.83
2023-01-23T23:36:27.701Z,91.47
2023-01-23T23:41:35.671Z,91.49
2023-01-23T23:46:42.038Z,91.55
2023-01-23T23:51:48.388Z,91.51
2023-01-23T23:56:56.102Z,91.71
